Terminal Aerodrome Forecast
Issued by NWS Greer, SC

Home | Current Version | Previous Version | Text Only | Print | Product List | Glossary On
Versions: 1 2 3 4 5 6 7 8 9 10 11 12 13 14 15 16 17 18 19 20 21 22
000
FTUS42 KGSP 251723
TAFGSP
TAF
KGSP 251723Z 2518/2618 02006KT P6SM OVC120
     FM260000 36005KT P6SM OVC050
     FM260300 36006KT 6SM -RA BR OVC020
     FM260800 34006KT 3SM -RA BR OVC007
     FM261600 29005KT P6SM OVC020=

USA.gov is the U.S. government's official web portal to all federal, state and local government web resources and services.